Time;durP1;ratioP1;P1;durP2;ratioP2;P2;SDS_P1;SDS_P2;PMS_P1;PMS_P2;Temp;Humidity;BMP_temperature;BMP_pressure;BME280_temperature;BME280_humidity;BME280_pressure;Samples;Min_cycle;Max_cycle;Signal;HPM_P1;HPM_P2
2022/07/04 00:02:24;;;;;;;10.52;7.13;;;;;;;;;;5029056;28;20116;-78
2022/07/04 00:04:49;;;;;;;9.63;6.57;;;;;;;;;;5024929;28;20044;-78
2022/07/04 00:07:15;;;;;;;10.05;6.30;;;;;;;;;;5040447;28;20052;-78
2022/07/04 00:09:41;;;;;;;8.15;6.50;;;;;;;;;;5043309;28;20034;-78
2022/07/04 00:12:07;;;;;;;7.47;6.63;;;;;;;;;;5013824;28;20033;-78
2022/07/04 00:14:32;;;;;;;9.90;6.53;;;;;;;;;;5045950;28;20025;-78
2022/07/04 00:16:57;;;;;;;9.77;6.68;;;;;;;;;;5055778;28;20174;-78
2022/07/04 00:19:23;;;;;;;9.80;6.63;;;;;;;;;;5055740;28;20020;-78
2022/07/04 00:21:48;;;;;;;9.45;5.88;;;;;;;;;;5027437;28;20042;-80
2022/07/04 00:24:14;;;;;;;9.73;6.60;;;;;;;;;;5051677;28;20021;-79
2022/07/04 00:26:39;;;;;;;7.47;6.15;;;;;;;;;;5048338;28;20407;-79
2022/07/04 00:29:05;;;;;;;11.77;7.07;;;;;;;;;;5038903;28;20025;-78
2022/07/04 00:31:30;;;;;;;8.85;6.38;;;;;;;;;;5022374;28;20045;-78
2022/07/04 00:33:55;;;;;;;8.35;6.22;;;;;;;;;;5017442;28;20046;-79
2022/07/04 00:36:21;;;;;;;8.50;6.10;;;;;;;;;;5046356;28;20547;-79
2022/07/04 00:38:46;;;;;;;6.82;5.85;;;;;;;;;;5037924;28;20033;-78
2022/07/04 00:41:12;;;;;;;8.30;6.53;;;;;;;;;;5040575;28;20121;-78
2022/07/04 00:43:38;;;;;;;8.18;6.78;;;;;;;;;;5040036;28;20044;-77
2022/07/04 00:46:04;;;;;;;7.20;5.88;;;;;;;;;;5022977;28;20558;-78
2022/07/04 00:48:30;;;;;;;8.35;6.78;;;;;;;;;;5040133;28;20025;-79
2022/07/04 00:50:55;;;;;;;9.55;6.55;;;;;;;;;;5041777;28;20034;-78
2022/07/04 00:53:22;;;;;;;6.97;6.05;;;;;;;;;;5041563;28;20036;-78
2022/07/04 00:55:48;;;;;;;7.93;6.40;;;;;;;;;;5040827;28;20065;-78
2022/07/04 00:58:13;;;;;;;8.27;6.38;;;;;;;;;;5038886;28;20510;-78
2022/07/04 01:00:38;;;;;;;7.82;6.82;;;;;;;;;;5044160;28;20109;-79
2022/07/04 01:03:04;;;;;;;8.52;6.68;;;;;;;;;;5058571;28;20043;-78
2022/07/04 01:05:29;;;;;;;10.20;6.88;;;;;;;;;;5055256;28;20029;-78
2022/07/04 01:07:55;;;;;;;8.60;6.63;;;;;;;;;;5038608;28;20512;-78
2022/07/04 01:10:21;;;;;;;8.77;7.07;;;;;;;;;;5021452;28;20410;-79
2022/07/04 01:12:46;;;;;;;10.57;7.03;;;;;;;;;;5038869;28;20028;-79
2022/07/04 01:15:11;;;;;;;10.20;6.93;;;;;;;;;;5037769;28;20697;-79
2022/07/04 01:17:37;;;;;;;8.32;6.97;;;;;;;;;;5019859;28;20076;-78
2022/07/04 01:20:03;;;;;;;8.70;7.00;;;;;;;;;;5037022;28;20026;-78
2022/07/04 01:22:28;;;;;;;8.40;7.40;;;;;;;;;;5022469;28;20017;-79
2022/07/04 01:24:54;;;;;;;11.00;7.03;;;;;;;;;;5039698;28;20048;-79
2022/07/04 01:27:19;;;;;;;10.85;7.10;;;;;;;;;;5039506;28;20075;-79
2022/07/04 01:29:45;;;;;;;13.70;7.32;;;;;;;;;;5019691;28;20386;-79
2022/07/04 01:32:10;;;;;;;8.77;6.93;;;;;;;;;;5045626;28;20055;-79
2022/07/04 01:34:36;;;;;;;9.35;7.75;;;;;;;;;;5057946;28;20036;-77
2022/07/04 01:37:01;;;;;;;12.23;7.50;;;;;;;;;;5057568;28;20029;-78
2022/07/04 01:39:27;;;;;;;10.15;7.55;;;;;;;;;;5057158;28;20112;-77
2022/07/04 01:41:53;;;;;;;10.57;7.55;;;;;;;;;;5050294;28;20029;-78
2022/07/04 01:44:18;;;;;;;11.18;7.43;;;;;;;;;;5040208;28;20041;-78
2022/07/04 01:46:44;;;;;;;11.02;8.00;;;;;;;;;;5049755;28;20086;-78
2022/07/04 01:49:09;;;;;;;10.65;6.95;;;;;;;;;;5037986;28;20041;-78
2022/07/04 01:51:35;;;;;;;10.50;7.28;;;;;;;;;;5035211;28;20060;-78
2022/07/04 01:54:00;;;;;;;12.48;8.70;;;;;;;;;;5035197;28;20099;-77
2022/07/04 01:56:26;;;;;;;9.65;6.88;;;;;;;;;;5036403;28;20419;-78
2022/07/04 01:58:51;;;;;;;10.50;7.38;;;;;;;;;;5038935;28;20408;-79
2022/07/04 02:01:32;;;;;;;8.60;6.85;;;;;;;;;;5039418;28;20104;-78
2022/07/04 02:03:57;;;;;;;12.05;7.38;;;;;;;;;;5040506;28;20030;-79
2022/07/04 02:06:23;;;;;;;13.77;7.43;;;;;;;;;;5039849;28;20056;-79
2022/07/04 02:13:00;;;;;;;10.40;7.63;;;;;;;;;;5037996;28;20060;-79
2022/07/04 02:14:19;;;;;;;9.50;6.75;;;;;;;;;;5060160;28;20029;-79
2022/07/04 02:16:44;;;;;;;8.70;6.93;;;;;;;;;;5021691;28;20497;-79
2022/07/04 02:19:10;;;;;;;8.23;6.68;;;;;;;;;;5038147;28;20040;-79
2022/07/04 02:21:35;;;;;;;11.30;6.65;;;;;;;;;;5037364;28;20034;-79
2022/07/04 02:24:01;;;;;;;9.80;7.40;;;;;;;;;;5019180;28;20124;-79
2022/07/04 02:26:26;;;;;;;9.77;6.97;;;;;;;;;;5048204;28;20079;-79
2022/07/04 02:28:52;;;;;;;12.15;7.15;;;;;;;;;;5057522;28;20037;-79
2022/07/04 02:31:17;;;;;;;9.02;6.43;;;;;;;;;;5056992;28;20033;-79
2022/07/04 02:33:43;;;;;;;9.75;6.88;;;;;;;;;;5017532;28;20057;-78
2022/07/04 02:36:08;;;;;;;9.27;7.00;;;;;;;;;;5034027;28;20167;-79
2022/07/04 02:38:34;;;;;;;8.48;7.05;;;;;;;;;;5058120;28;20067;-79
2022/07/04 02:40:59;;;;;;;9.23;7.45;;;;;;;;;;5055943;28;20036;-78
2022/07/04 02:43:25;;;;;;;10.45;7.47;;;;;;;;;;5056756;28;20037;-79
2022/07/04 02:45:50;;;;;;;8.75;6.82;;;;;;;;;;5053630;28;20109;-78
2022/07/04 02:48:15;;;;;;;10.30;7.03;;;;;;;;;;5054481;28;20037;-79
2022/07/04 02:50:41;;;;;;;8.65;7.05;;;;;;;;;;5055105;28;20082;-78
2022/07/04 02:53:06;;;;;;;9.68;6.63;;;;;;;;;;5047540;28;20037;-79
2022/07/04 02:55:32;;;;;;;11.13;7.40;;;;;;;;;;5036764;28;20021;-79
2022/07/04 02:57:57;;;;;;;10.48;7.38;;;;;;;;;;5030221;28;20538;-79
2022/07/04 03:00:23;;;;;;;11.95;7.65;;;;;;;;;;5058380;28;20036;-79
2022/07/04 03:02:49;;;;;;;16.92;8.02;;;;;;;;;;5030658;28;20120;-79
2022/07/04 03:05:14;;;;;;;15.02;8.35;;;;;;;;;;5040758;28;20033;-79
2022/07/04 03:07:39;;;;;;;12.48;7.32;;;;;;;;;;5051070;28;20053;-79
2022/07/04 03:10:05;;;;;;;13.00;8.07;;;;;;;;;;5055303;28;20029;-78
2022/07/04 03:12:31;;;;;;;12.18;8.85;;;;;;;;;;5053054;28;20045;-79
2022/07/04 03:14:58;;;;;;;12.88;8.07;;;;;;;;;;5041333;28;20025;-79
2022/07/04 03:17:28;;;;;;;13.52;7.70;;;;;;;;;;5042267;28;20032;-78
2022/07/04 03:19:54;;;;;;;12.65;7.15;;;;;;;;;;5040060;28;20033;-78
2022/07/04 03:22:19;;;;;;;14.15;7.85;;;;;;;;;;5037994;28;20036;-79
2022/07/04 03:24:45;;;;;;;14.45;7.22;;;;;;;;;;5029823;28;20034;-79
2022/07/04 03:27:10;;;;;;;9.52;7.70;;;;;;;;;;5036630;28;20084;-77
2022/07/04 03:29:36;;;;;;;12.02;8.20;;;;;;;;;;5045387;28;20083;-78
2022/07/04 03:32:01;;;;;;;11.63;7.30;;;;;;;;;;5036367;28;20041;-78
2022/07/04 03:34:27;;;;;;;13.75;8.20;;;;;;;;;;5043575;28;20071;-78
2022/07/04 03:36:52;;;;;;;13.38;7.78;;;;;;;;;;5048734;28;20408;-78
2022/07/04 03:39:17;;;;;;;13.13;7.53;;;;;;;;;;5045132;28;20021;-78
2022/07/04 03:41:43;;;;;;;13.07;7.88;;;;;;;;;;5049032;28;20033;-78
2022/07/04 03:44:08;;;;;;;15.60;8.43;;;;;;;;;;5045888;28;20025;-78
2022/07/04 03:46:34;;;;;;;13.68;8.52;;;;;;;;;;5049086;28;20047;-78
2022/07/04 03:48:59;;;;;;;13.20;7.63;;;;;;;;;;5045730;28;20029;-78
2022/07/04 03:51:25;;;;;;;15.68;8.10;;;;;;;;;;5050368;28;20567;-78
2022/07/04 03:53:50;;;;;;;16.60;8.05;;;;;;;;;;5044726;28;20032;-78
2022/07/04 03:56:16;;;;;;;11.52;8.43;;;;;;;;;;5048181;28;20079;-78
2022/07/04 03:58:42;;;;;;;11.32;7.72;;;;;;;;;;5044045;28;20029;-76
2022/07/04 04:01:08;;;;;;;11.60;7.88;;;;;;;;;;5049440;28;20514;-78
2022/07/04 04:06:17;;;;;;;16.77;8.05;;;;;;;;;;5046302;28;20136;-78
2022/07/04 04:08:42;;;;;;;11.20;7.63;;;;;;;;;;5047092;28;20064;-77
2022/07/04 04:11:08;;;;;;;13.10;8.40;;;;;;;;;;5038029;28;20039;-80
2022/07/04 04:13:34;;;;;;;13.57;11.05;;;;;;;;;;5036086;28;20040;-78
2022/07/04 04:15:59;;;;;;;13.90;8.98;;;;;;;;;;5043036;28;20047;-77
2022/07/04 04:18:25;;;;;;;12.13;8.70;;;;;;;;;;5054508;28;20025;-78
2022/07/04 04:20:50;;;;;;;11.23;8.00;;;;;;;;;;5048687;28;20412;-78
2022/07/04 04:23:16;;;;;;;14.35;10.55;;;;;;;;;;5045725;28;20037;-77
2022/07/04 04:25:41;;;;;;;11.60;7.55;;;;;;;;;;5037061;28;20065;-78
2022/07/04 04:28:07;;;;;;;16.08;8.60;;;;;;;;;;5035147;28;20066;-78
2022/07/04 04:30:33;;;;;;;10.43;7.82;;;;;;;;;;5034699;28;20045;-82
2022/07/04 04:32:58;;;;;;;9.48;7.32;;;;;;;;;;5035187;28;20540;-79
2022/07/04 04:35:24;;;;;;;13.18;7.45;;;;;;;;;;5033945;28;20213;-78
2022/07/04 04:37:49;;;;;;;12.75;7.70;;;;;;;;;;5034916;28;20435;-78
2022/07/04 04:40:15;;;;;;;10.75;7.80;;;;;;;;;;5034142;28;20033;-79
2022/07/04 04:42:40;;;;;;;13.18;7.72;;;;;;;;;;5033784;28;20083;-79
2022/07/04 04:45:06;;;;;;;12.52;7.75;;;;;;;;;;5034690;28;20029;-79
2022/07/04 04:47:31;;;;;;;14.02;8.32;;;;;;;;;;5034781;28;20049;-77
2022/07/04 04:49:57;;;;;;;12.85;8.60;;;;;;;;;;5034297;28;20033;-77
2022/07/04 04:52:22;;;;;;;17.63;9.32;;;;;;;;;;5033048;28;20029;-78
2022/07/04 04:54:48;;;;;;;11.32;7.88;;;;;;;;;;5038196;28;20032;-79
2022/07/04 04:57:13;;;;;;;10.80;8.18;;;;;;;;;;5054300;28;20032;-78
2022/07/04 04:59:39;;;;;;;11.52;8.05;;;;;;;;;;5036747;28;20037;-79
2022/07/04 05:02:04;;;;;;;9.75;7.72;;;;;;;;;;5034345;28;20040;-78
2022/07/04 05:04:30;;;;;;;12.57;7.88;;;;;;;;;;5033168;28;20496;-78
2022/07/04 05:06:56;;;;;;;10.93;8.43;;;;;;;;;;5034389;28;20085;-79
2022/07/04 05:09:21;;;;;;;10.52;8.57;;;;;;;;;;5034530;28;20033;-77
2022/07/04 05:11:47;;;;;;;15.35;8.02;;;;;;;;;;5033873;28;20047;-77
2022/07/04 05:14:12;;;;;;;13.13;8.00;;;;;;;;;;5034052;28;20407;-78
2022/07/04 05:16:38;;;;;;;10.35;7.22;;;;;;;;;;5047588;28;20108;-78
2022/07/04 05:19:03;;;;;;;11.00;7.07;;;;;;;;;;5051949;28;20407;-79
2022/07/04 05:21:29;;;;;;;12.25;6.75;;;;;;;;;;5052413;28;20032;-78
2022/07/04 05:23:55;;;;;;;10.20;6.78;;;;;;;;;;5052922;28;20467;-78
2022/07/04 05:26:20;;;;;;;11.38;6.60;;;;;;;;;;5039815;28;20116;-79
2022/07/04 05:28:46;;;;;;;12.73;6.93;;;;;;;;;;5046249;28;20037;-81
2022/07/04 05:31:11;;;;;;;23.50;7.07;;;;;;;;;;5029702;28;20032;-78
2022/07/04 05:33:36;;;;;;;19.75;7.32;;;;;;;;;;5053340;28;20029;-78
2022/07/04 05:36:02;;;;;;;12.73;6.32;;;;;;;;;;5052173;28;20387;-77
2022/07/04 05:38:27;;;;;;;13.05;6.88;;;;;;;;;;5051952;28;20028;-78
2022/07/04 05:40:53;;;;;;;14.00;5.68;;;;;;;;;;5051455;28;20040;-79
2022/07/04 05:43:21;;;;;;;7.55;5.03;;;;;;;;;;5053558;28;20040;-78
2022/07/04 05:45:48;;;;;;;7.20;5.40;;;;;;;;;;5050757;28;20021;-79
2022/07/04 05:48:14;;;;;;;10.48;5.60;;;;;;;;;;5040513;28;20040;-78
2022/07/04 05:50:39;;;;;;;8.50;4.90;;;;;;;;;;5051801;28;20460;-79
2022/07/04 05:53:05;;;;;;;10.40;6.38;;;;;;;;;;5052674;28;20498;-79
2022/07/04 05:55:30;;;;;;;9.43;5.20;;;;;;;;;;5052746;28;20035;-80
2022/07/04 05:57:56;;;;;;;9.63;5.30;;;;;;;;;;5052992;28;20120;-79
2022/07/04 06:00:22;;;;;;;8.75;5.80;;;;;;;;;;5050977;28;20017;-79
2022/07/04 06:02:47;;;;;;;8.25;4.88;;;;;;;;;;5051333;28;20415;-79
2022/07/04 06:05:13;;;;;;;9.65;5.03;;;;;;;;;;5049779;28;20116;-83
2022/07/04 06:07:38;;;;;;;12.90;5.43;;;;;;;;;;5052041;28;20206;-79
2022/07/04 06:10:05;;;;;;;12.15;5.10;;;;;;;;;;5051192;28;20049;-78
2022/07/04 06:12:30;;;;;;;8.93;5.35;;;;;;;;;;5033231;28;20082;-78
2022/07/04 06:14:56;;;;;;;11.18;5.25;;;;;;;;;;5046206;28;20024;-79
2022/07/04 06:17:21;;;;;;;7.35;5.18;;;;;;;;;;5033230;28;20026;-78
2022/07/04 06:19:47;;;;;;;6.38;4.70;;;;;;;;;;5033248;28;20126;-79
2022/07/04 06:22:12;;;;;;;8.27;4.85;;;;;;;;;;5035132;28;20033;-79
2022/07/04 06:24:38;;;;;;;6.18;4.25;;;;;;;;;;5035412;28;20453;-78
2022/07/04 06:27:03;;;;;;;4.97;3.92;;;;;;;;;;5033859;28;20128;-78
2022/07/04 06:29:29;;;;;;;4.40;3.83;;;;;;;;;;5033602;28;20029;-79
2022/07/04 06:31:54;;;;;;;10.93;3.63;;;;;;;;;;5036114;28;20033;-78
2022/07/04 06:37:04;;;;;;;5.55;4.03;;;;;;;;;;5033516;28;20026;-79
2022/07/04 06:39:29;;;;;;;7.18;4.10;;;;;;;;;;5036845;28;20171;-79
2022/07/04 06:41:55;;;;;;;5.85;4.00;;;;;;;;;;5034799;28;20511;-79
2022/07/04 06:44:20;;;;;;;5.85;3.75;;;;;;;;;;5039064;28;20156;-78
2022/07/04 06:46:46;;;;;;;4.72;3.60;;;;;;;;;;5039135;28;20037;-78
2022/07/04 06:49:11;;;;;;;7.32;4.85;;;;;;;;;;5041420;28;20068;-80
2022/07/04 06:51:37;;;;;;;6.88;3.85;;;;;;;;;;5038857;28;20129;-78
2022/07/04 06:54:02;;;;;;;6.13;4.18;;;;;;;;;;5040487;28;20033;-78
2022/07/04 06:56:28;;;;;;;9.85;4.35;;;;;;;;;;5040287;28;20072;-79
2022/07/04 06:58:53;;;;;;;8.57;4.18;;;;;;;;;;5022876;28;20424;-79
2022/07/04 07:01:19;;;;;;;6.32;4.20;;;;;;;;;;5022082;28;20083;-79
2022/07/04 07:03:44;;;;;;;8.25;4.40;;;;;;;;;;5040859;28;20120;-79
2022/07/04 07:06:10;;;;;;;7.60;4.10;;;;;;;;;;5040485;28;20021;-79
2022/07/04 07:08:35;;;;;;;7.32;3.90;;;;;;;;;;5039898;28;20052;-78
2022/07/04 07:11:13;;;;;;;7.10;3.72;;;;;;;;;;5040084;28;20034;-78
2022/07/04 07:13:39;;;;;;;4.60;3.33;;;;;;;;;;5035947;28;20029;-79
2022/07/04 07:16:05;;;;;;;8.00;3.63;;;;;;;;;;5036183;28;20038;-79
2022/07/04 07:18:30;;;;;;;5.72;3.30;;;;;;;;;;5036553;28;20397;-78
2022/07/04 07:20:55;;;;;;;5.75;3.40;;;;;;;;;;5036833;28;20396;-79
2022/07/04 07:23:21;;;;;;;6.20;3.13;;;;;;;;;;5037322;28;20095;-77
2022/07/04 07:25:46;;;;;;;4.40;3.13;;;;;;;;;;5036520;28;20475;-79
2022/07/04 07:28:13;;;;;;;4.72;3.33;;;;;;;;;;5037137;28;20037;-79
2022/07/04 07:30:38;;;;;;;4.65;2.85;;;;;;;;;;5036735;28;20091;-80
2022/07/04 07:33:04;;;;;;;5.15;3.22;;;;;;;;;;5036651;28;20037;-79
2022/07/04 07:35:29;;;;;;;4.03;3.22;;;;;;;;;;5036356;28;20026;-79
2022/07/04 07:37:55;;;;;;;6.65;3.08;;;;;;;;;;5036355;28;20033;-79
2022/07/04 07:40:20;;;;;;;4.97;3.42;;;;;;;;;;5035013;28;20630;-80
2022/07/04 07:42:46;;;;;;;5.13;3.70;;;;;;;;;;5048194;28;20103;-83
2022/07/04 07:45:11;;;;;;;6.82;3.38;;;;;;;;;;5035712;28;20057;-80
2022/07/04 07:47:36;;;;;;;5.88;3.30;;;;;;;;;;5034521;28;20052;-79
2022/07/04 07:50:03;;;;;;;5.55;3.70;;;;;;;;;;5034131;28;20037;-79
2022/07/04 07:52:29;;;;;;;7.22;3.40;;;;;;;;;;5034821;28;20043;-82
2022/07/04 07:54:54;;;;;;;5.28;2.95;;;;;;;;;;5036646;28;20462;-79
2022/07/04 07:57:20;;;;;;;4.50;3.53;;;;;;;;;;5035476;28;20029;-79
2022/07/04 07:59:45;;;;;;;8.13;3.47;;;;;;;;;;5036352;28;20026;-79
2022/07/04 08:02:11;;;;;;;8.32;3.50;;;;;;;;;;5034523;28;20345;-79
2022/07/04 08:04:37;;;;;;;6.53;3.47;;;;;;;;;;5034804;28;20167;-79
2022/07/04 08:07:06;;;;;;;4.43;3.33;;;;;;;;;;5036947;28;20123;-80
2022/07/04 08:09:32;;;;;;;4.57;3.38;;;;;;;;;;5035516;28;20110;-80
2022/07/04 08:11:58;;;;;;;5.75;3.03;;;;;;;;;;5035859;28;20037;-80
2022/07/04 08:14:26;;;;;;;4.80;3.58;;;;;;;;;;5045281;28;20033;-80
2022/07/04 08:16:52;;;;;;;6.22;3.25;;;;;;;;;;5038314;28;20027;-80
2022/07/04 08:19:17;;;;;;;4.57;3.40;;;;;;;;;;5034940;28;20404;-80
2022/07/04 08:21:43;;;;;;;5.72;3.60;;;;;;;;;;5034058;28;20029;-81
2022/07/04 08:24:08;;;;;;;4.93;3.13;;;;;;;;;;5033750;28;20041;-80
2022/07/04 08:26:34;;;;;;;4.72;3.53;;;;;;;;;;5035405;28;20025;-81
2022/07/04 08:28:59;;;;;;;5.30;3.40;;;;;;;;;;5035947;28;20499;-81
2022/07/04 08:31:28;;;;;;;7.22;3.60;;;;;;;;;;5035280;28;20095;-80
2022/07/04 08:33:53;;;;;;;5.50;3.28;;;;;;;;;;5034278;28;20060;-81
2022/07/04 08:36:19;;;;;;;4.47;3.33;;;;;;;;;;5034969;28;20046;-80
2022/07/04 08:38:44;;;;;;;4.15;3.55;;;;;;;;;;5034922;28;20041;-81
2022/07/04 08:41:10;;;;;;;6.47;3.45;;;;;;;;;;5033571;28;20032;-82
2022/07/04 08:43:36;;;;;;;5.00;4.50;;;;;;;;;;5033836;28;20061;-83
2022/07/04 08:46:05;;;;;;;5.07;3.45;;;;;;;;;;5034382;28;20459;-83
2022/07/04 08:48:31;;;;;;;4.80;3.30;;;;;;;;;;5035339;28;20029;-80
2022/07/04 08:50:57;;;;;;;5.95;3.40;;;;;;;;;;5034837;28;20523;-79
2022/07/04 08:53:24;;;;;;;7.00;3.88;;;;;;;;;;5000460;28;20036;-82
2022/07/04 08:58:34;;;;;;;4.40;3.80;;;;;;;;;;5053657;28;20123;-80
2022/07/04 09:01:03;;;;;;;5.28;3.63;;;;;;;;;;5046888;28;20079;-80
2022/07/04 09:03:29;;;;;;;5.00;3.58;;;;;;;;;;5034621;28;20033;-82
2022/07/04 09:05:55;;;;;;;5.18;3.67;;;;;;;;;;5033486;28;20041;-79
2022/07/04 09:08:20;;;;;;;4.55;3.35;;;;;;;;;;5034352;28;20140;-79
2022/07/04 09:10:46;;;;;;;5.28;3.40;;;;;;;;;;5034055;28;20041;-78
2022/07/04 09:13:14;;;;;;;6.30;3.10;;;;;;;;;;5047500;28;20043;-79
2022/07/04 09:15:40;;;;;;;5.05;3.33;;;;;;;;;;5032984;28;20029;-80
2022/07/04 09:18:05;;;;;;;4.82;3.50;;;;;;;;;;5046014;28;20040;-79
2022/07/04 09:20:31;;;;;;;5.05;3.70;;;;;;;;;;5047390;28;20032;-79
2022/07/04 09:22:57;;;;;;;4.93;3.28;;;;;;;;;;5034023;28;20459;-79
2022/07/04 09:25:23;;;;;;;6.30;3.30;;;;;;;;;;5047451;28;20040;-80
2022/07/04 09:27:49;;;;;;;5.57;3.65;;;;;;;;;;5031942;28;20034;-80
2022/07/04 09:30:15;;;;;;;4.78;3.40;;;;;;;;;;5032260;28;20468;-84
2022/07/04 09:32:44;;;;;;;6.05;2.97;;;;;;;;;;5044969;28;20659;-80
2022/07/04 09:35:11;;;;;;;4.07;3.17;;;;;;;;;;5025972;28;20391;-80
2022/07/04 09:37:38;;;;;;;4.22;3.28;;;;;;;;;;5051022;28;20404;-80
2022/07/04 09:40:04;;;;;;;5.22;3.28;;;;;;;;;;5053004;28;20078;-80
2022/07/04 09:42:40;;;;;;;4.63;2.70;;;;;;;;;;5051312;28;20045;-79
2022/07/04 09:45:06;;;;;;;6.88;3.10;;;;;;;;;;5042927;28;20037;-82
2022/07/04 09:47:32;;;;;;;4.22;2.92;;;;;;;;;;5046036;28;20029;-81
2022/07/04 09:50:05;;;;;;;4.20;3.20;;;;;;;;;;5040343;28;20045;-80
2022/07/04 09:52:31;;;;;;;4.55;2.80;;;;;;;;;;5050351;28;20037;-81
2022/07/04 09:55:02;;;;;;;3.10;2.67;;;;;;;;;;5051241;28;20024;-80
2022/07/04 09:57:28;;;;;;;3.33;2.83;;;;;;;;;;5051671;28;20480;-80
2022/07/04 09:59:53;;;;;;;3.50;2.78;;;;;;;;;;5052225;28;20112;-80
2022/07/04 10:02:19;;;;;;;3.55;2.90;;;;;;;;;;5022024;28;20194;-83
2022/07/04 10:04:45;;;;;;;3.15;2.72;;;;;;;;;;5053433;28;20054;-82
2022/07/04 10:07:11;;;;;;;3.45;2.78;;;;;;;;;;5052539;28;20056;-81
2022/07/04 10:09:36;;;;;;;3.17;2.38;;;;;;;;;;5052211;28;20484;-80
2022/07/04 10:12:02;;;;;;;3.50;2.70;;;;;;;;;;5047650;28;20041;-82
2022/07/04 10:14:27;;;;;;;3.28;2.67;;;;;;;;;;5031743;28;20052;-81
2022/07/04 10:16:53;;;;;;;3.40;2.60;;;;;;;;;;5033890;28;20025;-80
2022/07/04 10:19:18;;;;;;;3.75;2.60;;;;;;;;;;5034513;28;20514;-80
2022/07/04 10:21:44;;;;;;;2.92;2.40;;;;;;;;;;5036544;28;20064;-81
2022/07/04 10:24:09;;;;;;;3.35;2.50;;;;;;;;;;5016849;28;20030;-80
2022/07/04 10:26:35;;;;;;;2.70;2.50;;;;;;;;;;5035544;28;20045;-80
2022/07/04 10:29:00;;;;;;;3.83;2.80;;;;;;;;;;5039174;28;20034;-80
2022/07/04 10:31:26;;;;;;;3.85;2.85;;;;;;;;;;5039553;28;20061;-79
2022/07/04 10:33:54;;;;;;;4.20;2.72;;;;;;;;;;5035801;28;20392;-79
2022/07/04 10:36:20;;;;;;;5.13;2.85;;;;;;;;;;5038588;28;20028;-80
2022/07/04 10:38:46;;;;;;;3.00;2.63;;;;;;;;;;5037937;28;20109;-81
2022/07/04 10:41:12;;;;;;;3.25;2.50;;;;;;;;;;5039198;28;20028;-80
2022/07/04 10:43:46;;;;;;;5.95;2.90;;;;;;;;;;5018579;28;20486;-81
2022/07/04 10:46:20;;;;;;;4.60;2.93;;;;;;;;;;5071778;28;20033;-79
2022/07/04 10:48:53;;;;;;;3.33;2.78;;;;;;;;;;5035866;28;20284;-82
2022/07/04 10:51:47;;;;;;;6.07;2.72;;;;;;;;;;5039453;28;20064;-79
2022/07/04 10:54:20;;;;;;;3.95;2.70;;;;;;;;;;5025352;28;20124;-80
2022/07/04 10:56:50;;;;;;;3.47;2.60;;;;;;;;;;5020803;28;20268;-81
2022/07/04 10:59:16;;;;;;;6.63;2.78;;;;;;;;;;5021648;28;20037;-80
2022/07/04 11:01:46;;;;;;;3.17;2.78;;;;;;;;;;5038283;28;20026;-80
2022/07/04 11:04:11;;;;;;;4.55;2.78;;;;;;;;;;5016855;28;20030;-80
2022/07/04 11:06:38;;;;;;;3.80;2.50;;;;;;;;;;5032718;28;20112;-80
2022/07/04 11:09:13;;;;;;;4.82;2.55;;;;;;;;;;5039837;28;20037;-84
2022/07/04 11:11:48;;;;;;;4.07;2.67;;;;;;;;;;5040563;28;20052;-81
2022/07/04 11:14:13;;;;;;;;;;;;;;;;;;5027099;28;20488;-80
2022/07/04 11:16:51;;;;;;;5.80;2.60;;;;;;;;;;5054095;28;19916;-80
2022/07/04 11:19:17;;;;;;;3.28;2.60;;;;;;;;;;5038114;28;20041;-81
2022/07/04 11:21:42;;;;;;;4.88;2.60;;;;;;;;;;5055684;28;20037;-80
2022/07/04 11:24:09;;;;;;;4.18;2.40;;;;;;;;;;5055801;28;20356;-81
2022/07/04 11:26:34;;;;;;;2.78;2.47;;;;;;;;;;5053659;28;20092;-81
2022/07/04 11:29:00;;;;;;;4.93;2.40;;;;;;;;;;5054931;28;20041;-80
2022/07/04 11:31:35;;;;;;;3.33;2.40;;;;;;;;;;5056450;28;20040;-81
2022/07/04 11:34:01;;;;;;;3.45;2.55;;;;;;;;;;5055170;28;20052;-80
2022/07/04 11:36:26;;;;;;;3.88;2.72;;;;;;;;;;5055381;28;20036;-80
2022/07/04 11:38:56;;;;;;;3.85;2.92;;;;;;;;;;5036777;28;20061;-80
2022/07/04 11:47:26;;;;;;;3.58;2.65;;;;;;;;;;5035122;28;20391;-80
2022/07/04 11:49:55;;;;;;;4.60;2.60;;;;;;;;;;5029347;28;20053;-80
2022/07/04 11:52:21;;;;;;;2.60;2.40;;;;;;;;;;5034074;28;20087;-81
2022/07/04 11:54:47;;;;;;;3.30;2.42;;;;;;;;;;5035955;28;20040;-81
2022/07/04 11:57:16;;;;;;;2.97;2.30;;;;;;;;;;5054864;28;20033;-82
2022/07/04 11:59:42;;;;;;;4.25;2.30;;;;;;;;;;5050118;28;20029;-79
2022/07/04 12:02:12;;;;;;;3.85;2.50;;;;;;;;;;5044357;28;20452;-81
2022/07/04 12:04:41;;;;;;;4.68;2.40;;;;;;;;;;5036416;28;20037;-81
2022/07/04 12:07:19;;;;;;;3.03;2.58;;;;;;;;;;5034661;28;20056;-81
2022/07/04 12:09:45;;;;;;;2.53;2.15;;;;;;;;;;5052396;28;20036;-82
2022/07/04 12:12:11;;;;;;;3.55;2.60;;;;;;;;;;5049824;28;20167;-81
2022/07/04 12:14:36;;;;;;;3.13;2.47;;;;;;;;;;5045997;28;20029;-81
2022/07/04 12:17:14;;;;;;;4.35;2.28;;;;;;;;;;5037411;28;20035;-82
2022/07/04 12:20:09;;;;;;;4.78;2.40;;;;;;;;;;5040481;28;20041;-82
2022/07/04 12:22:36;;;;;;;2.85;2.30;;;;;;;;;;5011702;28;20045;-80
2022/07/04 12:25:01;;;;;;;4.53;2.53;;;;;;;;;;5035375;28;20029;-81
2022/07/04 12:27:27;;;;;;;3.70;2.40;;;;;;;;;;5034980;28;20041;-81
2022/07/04 12:29:53;;;;;;;5.07;2.60;;;;;;;;;;5034204;28;20029;-81
2022/07/04 12:32:18;;;;;;;3.25;2.72;;;;;;;;;;5034334;28;20029;-81
2022/07/04 12:34:44;;;;;;;2.97;2.50;;;;;;;;;;5033345;28;20029;-79
2022/07/04 12:37:10;;;;;;;2.85;2.45;;;;;;;;;;5034664;28;20451;-80
2022/07/04 12:39:37;;;;;;;3.15;2.53;;;;;;;;;;5034690;28;20021;-82
2022/07/04 12:42:06;;;;;;;3.55;2.60;;;;;;;;;;5033562;28;20404;-83
2022/07/04 12:44:32;;;;;;;4.68;2.72;;;;;;;;;;5034478;28;20026;-81
2022/07/04 12:46:57;;;;;;;3.22;2.90;;;;;;;;;;5033235;28;20116;-84
2022/07/04 12:49:23;;;;;;;3.90;2.65;;;;;;;;;;5017084;28;20079;-80
2022/07/04 12:51:49;;;;;;;4.07;2.63;;;;;;;;;;5016400;28;20459;-79
2022/07/04 12:54:14;;;;;;;3.58;2.60;;;;;;;;;;5034224;28;20052;-80
2022/07/04 12:56:43;;;;;;;4.38;2.97;;;;;;;;;;5032906;28;20043;-80
2022/07/04 12:59:12;;;;;;;3.47;2.63;;;;;;;;;;5012523;28;20056;-80
2022/07/04 13:01:38;;;;;;;3.53;2.90;;;;;;;;;;5041006;28;20044;-82
2022/07/04 13:04:03;;;;;;;4.13;2.80;;;;;;;;;;5037777;28;20017;-81
2022/07/04 13:06:29;;;;;;;4.53;3.00;;;;;;;;;;5053024;28;20040;-81
2022/07/04 13:08:55;;;;;;;4.85;3.08;;;;;;;;;;5035329;28;20041;-84
2022/07/04 13:14:04;;;;;;;3.45;3.10;;;;;;;;;;5020582;28;20041;-83
2022/07/04 13:16:30;;;;;;;5.28;3.08;;;;;;;;;;5034105;28;20485;-81
2022/07/04 13:18:56;;;;;;;3.72;2.95;;;;;;;;;;5034090;28;20033;-82
2022/07/04 13:21:22;;;;;;;4.97;2.90;;;;;;;;;;5033025;28;20552;-82
2022/07/04 13:23:47;;;;;;;5.55;2.92;;;;;;;;;;5012814;28;20180;-80
2022/07/04 13:26:13;;;;;;;3.95;3.40;;;;;;;;;;5026027;28;20405;-80
2022/07/04 13:28:38;;;;;;;3.40;2.92;;;;;;;;;;5021227;28;20463;-80
2022/07/04 13:31:04;;;;;;;3.47;3.17;;;;;;;;;;5031670;28;20034;-80
2022/07/04 13:33:29;;;;;;;8.18;3.30;;;;;;;;;;5019170;28;20022;-80
2022/07/04 13:35:55;;;;;;;4.65;3.03;;;;;;;;;;5046433;28;20115;-80
2022/07/04 13:38:20;;;;;;;4.57;3.17;;;;;;;;;;5050946;28;20029;-81
2022/07/04 13:40:46;;;;;;;5.85;3.65;;;;;;;;;;5052958;28;20067;-81
2022/07/04 13:43:11;;;;;;;6.65;3.63;;;;;;;;;;5050742;28;20413;-84
2022/07/04 13:45:39;;;;;;;3.70;3.30;;;;;;;;;;5038913;28;20116;-83
2022/07/04 13:48:05;;;;;;;3.70;3.30;;;;;;;;;;5033242;28;20095;-81
2022/07/04 13:50:30;;;;;;;4.10;3.70;;;;;;;;;;5032540;28;20493;-80
2022/07/04 13:52:55;;;;;;;4.25;3.50;;;;;;;;;;5044908;28;20038;-83
2022/07/04 13:55:21;;;;;;;6.75;3.95;;;;;;;;;;5031558;28;20029;-80
2022/07/04 13:57:46;;;;;;;4.28;3.63;;;;;;;;;;5050667;28;20475;-81
2022/07/04 14:00:12;;;;;;;5.40;3.63;;;;;;;;;;5034832;28;20082;-79
2022/07/04 14:02:37;;;;;;;4.85;3.65;;;;;;;;;;5032796;28;20130;-80
2022/07/04 14:05:03;;;;;;;6.70;4.10;;;;;;;;;;5031736;28;20017;-79
2022/07/04 14:07:28;;;;;;;7.10;3.92;;;;;;;;;;5015144;28;20504;-80
2022/07/04 14:09:54;;;;;;;4.43;3.40;;;;;;;;;;5037337;28;20044;-81
2022/07/04 14:12:20;;;;;;;6.13;3.45;;;;;;;;;;5023830;28;20040;-80
2022/07/04 14:14:45;;;;;;;6.93;4.10;;;;;;;;;;5043828;28;20545;-80
2022/07/04 14:17:11;;;;;;;5.00;3.60;;;;;;;;;;5052362;28;20029;-80
2022/07/04 14:19:37;;;;;;;4.47;3.60;;;;;;;;;;5052062;28;20047;-81
2022/07/04 14:22:02;;;;;;;3.95;3.50;;;;;;;;;;5038590;28;20522;-79
2022/07/04 14:24:27;;;;;;;6.05;3.63;;;;;;;;;;5051953;28;20032;-79
2022/07/04 14:26:53;;;;;;;4.07;3.47;;;;;;;;;;5051819;28;20373;-80
2022/07/04 14:29:19;;;;;;;3.65;3.22;;;;;;;;;;5020472;28;20029;-80
2022/07/04 14:31:44;;;;;;;4.45;3.38;;;;;;;;;;5032568;28;20048;-80
2022/07/04 14:34:11;;;;;;;4.32;3.50;;;;;;;;;;5022217;28;20497;-80
2022/07/04 14:36:37;;;;;;;4.75;3.65;;;;;;;;;;5041009;28;20042;-81
2022/07/04 14:39:03;;;;;;;3.90;3.25;;;;;;;;;;5027443;28;20041;-80
2022/07/04 14:41:28;;;;;;;5.90;3.50;;;;;;;;;;5032595;28;20037;-80
2022/07/04 14:43:54;;;;;;;5.22;3.60;;;;;;;;;;5031378;28;20184;-80
2022/07/04 14:46:20;;;;;;;4.90;3.60;;;;;;;;;;5027029;28;20396;-82
2022/07/04 14:48:45;;;;;;;7.47;3.60;;;;;;;;;;5036123;28;20373;-82
2022/07/04 14:51:10;;;;;;;5.32;3.35;;;;;;;;;;5032218;28;20492;-78
2022/07/04 14:53:36;;;;;;;7.18;3.90;;;;;;;;;;5032539;28;20039;-79
2022/07/04 14:56:01;;;;;;;4.05;3.60;;;;;;;;;;5032373;28;20067;-80